sensor_id;sensor_type;location;lat;lon;timestamp;P1;P2;P0
62249;PMS5003;48237;50.140;8.486;2023-01-29T15:25:21;28;25;
62249;PMS5003;48237;50.140;8.486;2023-01-29T15:27:49;32;25;
62249;PMS5003;48237;50.140;8.486;2023-01-29T15:30:17;36;27;
62249;PMS5003;48237;50.140;8.486;2023-01-29T15:32:47;29;21;
62249;PMS5003;48237;50.140;8.486;2023-01-29T15:35:18;45;33;
62249;PMS5003;48237;50.140;8.486;2023-01-29T15:38:01;38;27;
62249;PMS5003;48237;50.140;8.486;2023-01-29T15:40:30;32;26;
62249;PMS5003;48237;50.140;8.486;2023-01-29T15:42:58;44;35;
62249;PMS5003;48237;50.140;8.486;2023-01-29T15:45:27;33;26;
62249;PMS5003;48237;50.140;8.486;2023-01-29T15:47:57;35;24;
62249;PMS5003;48237;50.140;8.486;2023-01-29T15:50:28;36;24;
62249;PMS5003;48237;50.140;8.486;2023-01-29T15:53:00;30;26;
62249;PMS5003;48237;50.140;8.486;2023-01-29T15:55:32;32;28;
62249;PMS5003;48237;50.140;8.486;2023-01-29T15:58:01;39;25;
62249;PMS5003;48237;50.140;8.486;2023-01-29T16:00:28;42;28;
62249;PMS5003;48237;50.140;8.486;2023-01-29T16:02:57;37;31;
62249;PMS5003;48237;50.140;8.486;2023-01-29T16:05:26;35;33;
62249;PMS5003;48237;50.140;8.486;2023-01-29T16:07:55;45;39;
62249;PMS5003;48237;50.140;8.486;2023-01-29T16:10:24;37;32;
62249;PMS5003;48237;50.140;8.486;2023-01-29T16:12:53;47;34;
62249;PMS5003;48237;50.140;8.486;2023-01-29T16:15:26;51;41;
62249;PMS5003;48237;50.140;8.486;2023-01-29T16:17:56;56;39;
62249;PMS5003;48237;50.140;8.486;2023-01-29T16:20:32;51;38;
62249;PMS5003;48237;50.140;8.486;2023-01-29T16:23:02;38;27;
62249;PMS5003;48237;50.140;8.486;2023-01-29T16:25:31;32;23;
62249;PMS5003;48237;50.140;8.486;2023-01-29T16:28:02;33;27;
62249;PMS5003;48237;50.140;8.486;2023-01-29T16:30:32;32;25;
62249;PMS5003;48237;50.140;8.486;2023-01-29T16:33:00;36;33;
62249;PMS5003;48237;50.140;8.486;2023-01-29T16:35:28;31;25;
62249;PMS5003;48237;50.140;8.486;2023-01-29T16:37:57;37;32;
62249;PMS5003;48237;50.140;8.486;2023-01-29T16:40:28;37;27;
62249;PMS5003;48237;50.140;8.486;2023-01-29T16:43:02;33;28;
62249;PMS5003;48237;50.140;8.486;2023-01-29T16:45:28;33;28;
62249;PMS5003;48237;50.140;8.486;2023-01-29T16:47:58;35;25;
62249;PMS5003;48237;50.140;8.486;2023-01-29T16:50:29;40;32;
62249;PMS5003;48237;50.140;8.486;2023-01-29T16:53:00;35;32;
62249;PMS5003;48237;50.140;8.486;2023-01-29T16:55:32;31;25;
62249;PMS5003;48237;50.140;8.486;2023-01-29T16:58:03;29;27;
62249;PMS5003;48237;50.140;8.486;2023-01-29T17:00:37;30;24;
62249;PMS5003;48237;50.140;8.486;2023-01-29T17:03:09;33;27;
62249;PMS5003;48237;50.140;8.486;2023-01-29T17:05:40;39;32;
62249;PMS5003;48237;50.140;8.486;2023-01-29T17:08:12;33;24;
62249;PMS5003;48237;50.140;8.486;2023-01-29T17:10:45;43;31;
62249;PMS5003;48237;50.140;8.486;2023-01-29T17:13:16;33;27;
62249;PMS5003;48237;50.140;8.486;2023-01-29T17:15:49;31;27;
62249;PMS5003;48237;50.140;8.486;2023-01-29T17:18:16;30;29;
62249;PMS5003;48237;50.140;8.486;2023-01-29T17:20:45;35;28;
62249;PMS5003;48237;50.140;8.486;2023-01-29T17:23:12;31;26;
62249;PMS5003;48237;50.140;8.486;2023-01-29T17:25:40;30;26;
62249;PMS5003;48237;50.140;8.486;2023-01-29T17:28:08;38;29;
62249;PMS5003;48237;50.140;8.486;2023-01-29T17:30:38;39;29;
62249;PMS5003;48237;50.140;8.486;2023-01-29T17:33:08;40;30;
62249;PMS5003;48237;50.140;8.486;2023-01-29T17:35:37;34;26;
62249;PMS5003;48237;50.140;8.486;2023-01-29T17:38:04;43;32;
62249;PMS5003;48237;50.140;8.486;2023-01-29T17:40:35;35;29;
62249;PMS5003;48237;50.140;8.486;2023-01-29T17:43:06;39;33;
62249;PMS5003;48237;50.140;8.486;2023-01-29T17:45:33;39;33;
62249;PMS5003;48237;50.140;8.486;2023-01-29T17:48:00;37;31;
62249;PMS5003;48237;50.140;8.486;2023-01-29T17:50:29;47;37;
62249;PMS5003;48237;50.140;8.486;2023-01-29T17:52:57;37;31;
62249;PMS5003;48237;50.140;8.486;2023-01-29T17:55:24;91;68;
62249;PMS5003;48237;50.140;8.486;2023-01-29T17:57:52;69;64;
62249;PMS5003;48237;50.140;8.486;2023-01-29T18:00:20;69;55;
62249;PMS5003;48237;50.140;8.486;2023-01-29T18:02:49;55;46;
62249;PMS5003;48237;50.140;8.486;2023-01-29T18:05:17;54;45;
62249;PMS5003;48237;50.140;8.486;2023-01-29T18:07:45;71;52;
62249;PMS5003;48237;50.140;8.486;2023-01-29T18:10:14;68;49;
62249;PMS5003;48237;50.140;8.486;2023-01-29T18:12:43;65;58;
62249;PMS5003;48237;50.140;8.486;2023-01-29T18:15:11;75;65;
62249;PMS5003;48237;50.140;8.486;2023-01-29T18:17:38;74;61;
62249;PMS5003;48237;50.140;8.486;2023-01-29T18:20:16;75;60;
62249;PMS5003;48237;50.140;8.486;2023-01-29T18:22:45;86;69;
62249;PMS5003;48237;50.140;8.486;2023-01-29T18:25:12;74;60;
62249;PMS5003;48237;50.140;8.486;2023-01-29T18:27:40;71;48;
62249;PMS5003;48237;50.140;8.486;2023-01-29T18:30:07;54;43;
62249;PMS5003;48237;50.140;8.486;2023-01-29T18:32:36;130;97;
62249;PMS5003;48237;50.140;8.486;2023-01-29T18:35:04;238;174;
62249;PMS5003;48237;50.140;8.486;2023-01-29T18:37:32;103;80;
62249;PMS5003;48237;50.140;8.486;2023-01-29T18:40:00;64;44;
62249;PMS5003;48237;50.140;8.486;2023-01-29T18:42:29;61;48;
62249;PMS5003;48237;50.140;8.486;2023-01-29T18:44:56;66;54;
62249;PMS5003;48237;50.140;8.486;2023-01-29T18:47:23;72;52;
62249;PMS5003;48237;50.140;8.486;2023-01-29T18:49:51;61;52;
62249;PMS5003;48237;50.140;8.486;2023-01-29T18:52:17;67;51;
62249;PMS5003;48237;50.140;8.486;2023-01-29T18:54:45;66;53;
62249;PMS5003;48237;50.140;8.486;2023-01-29T18:57:12;67;49;
62249;PMS5003;48237;50.140;8.486;2023-01-29T18:59:39;64;48;
62249;PMS5003;48237;50.140;8.486;2023-01-29T19:02:08;81;66;
62249;PMS5003;48237;50.140;8.486;2023-01-29T19:04:38;78;56;
62249;PMS5003;48237;50.140;8.486;2023-01-29T19:07:07;78;65;
62249;PMS5003;48237;50.140;8.486;2023-01-29T19:09:34;114;91;
62249;PMS5003;48237;50.140;8.486;2023-01-29T19:12:01;84;66;
62249;PMS5003;48237;50.140;8.486;2023-01-29T19:14:29;83;64;
62249;PMS5003;48237;50.140;8.486;2023-01-29T19:16:56;81;64;
62249;PMS5003;48237;50.140;8.486;2023-01-29T19:19:23;81;65;
62249;PMS5003;48237;50.140;8.486;2023-01-29T19:21:51;96;76;
62249;PMS5003;48237;50.140;8.486;2023-01-29T19:24:18;83;67;
62249;PMS5003;48237;50.140;8.486;2023-01-29T19:26:45;86;64;
62249;PMS5003;48237;50.140;8.486;2023-01-29T19:29:12;89;67;
62249;PMS5003;48237;50.140;8.486;2023-01-29T19:31:39;71;57;
62249;PMS5003;48237;50.140;8.486;2023-01-29T19:34:06;64;46;
62249;PMS5003;48237;50.140;8.486;2023-01-29T19:36:34;53;46;
62249;PMS5003;48237;50.140;8.486;2023-01-29T19:39:01;61;46;
62249;PMS5003;48237;50.140;8.486;2023-01-29T19:41:28;59;43;
62249;PMS5003;48237;50.140;8.486;2023-01-29T19:43:55;66;50;
62249;PMS5003;48237;50.140;8.486;2023-01-29T19:46:22;45;41;
62249;PMS5003;48237;50.140;8.486;2023-01-29T19:48:49;64;53;
62249;PMS5003;48237;50.140;8.486;2023-01-29T19:51:16;64;46;
62249;PMS5003;48237;50.140;8.486;2023-01-29T19:53:44;54;40;
62249;PMS5003;48237;50.140;8.486;2023-01-29T19:56:12;61;45;
62249;PMS5003;48237;50.140;8.486;2023-01-29T19:58:39;54;43;
62249;PMS5003;48237;50.140;8.486;2023-01-29T20:01:12;61;49;
62249;PMS5003;48237;50.140;8.486;2023-01-29T20:03:41;49;43;
62249;PMS5003;48237;50.140;8.486;2023-01-29T20:06:08;60;43;
62249;PMS5003;48237;50.140;8.486;2023-01-29T20:08:36;57;38;
62249;PMS5003;48237;50.140;8.486;2023-01-29T20:11:03;68;42;
62249;PMS5003;48237;50.140;8.486;2023-01-29T20:13:31;61;45;
62249;PMS5003;48237;50.140;8.486;2023-01-29T20:15:59;63;46;
62249;PMS5003;48237;50.140;8.486;2023-01-29T20:18:27;59;43;
62249;PMS5003;48237;50.140;8.486;2023-01-29T20:20:53;66;45;
62249;PMS5003;48237;50.140;8.486;2023-01-29T20:23:21;58;42;
62249;PMS5003;48237;50.140;8.486;2023-01-29T20:25:49;60;48;
62249;PMS5003;48237;50.140;8.486;2023-01-29T20:28:16;55;41;
62249;PMS5003;48237;50.140;8.486;2023-01-29T20:30:44;57;48;
62249;PMS5003;48237;50.140;8.486;2023-01-29T20:33:11;56;44;
62249;PMS5003;48237;50.140;8.486;2023-01-29T20:35:38;64;43;
62249;PMS5003;48237;50.140;8.486;2023-01-29T20:38:06;88;53;
62249;PMS5003;48237;50.140;8.486;2023-01-29T20:40:34;61;43;
62249;PMS5003;48237;50.140;8.486;2023-01-29T20:43:01;71;55;
62249;PMS5003;48237;50.140;8.486;2023-01-29T20:45:28;75;57;
62249;PMS5003;48237;50.140;8.486;2023-01-29T20:47:56;77;50;
62249;PMS5003;48237;50.140;8.486;2023-01-29T20:50:23;84;54;
62249;PMS5003;48237;50.140;8.486;2023-01-29T20:52:49;54;42;
62249;PMS5003;48237;50.140;8.486;2023-01-29T20:55:17;73;51;
62249;PMS5003;48237;50.140;8.486;2023-01-29T20:57:44;63;48;
62249;PMS5003;48237;50.140;8.486;2023-01-29T21:00:12;61;45;
62249;PMS5003;48237;50.140;8.486;2023-01-29T21:02:40;61;44;
62249;PMS5003;48237;50.140;8.486;2023-01-29T21:05:07;66;52;
62249;PMS5003;48237;50.140;8.486;2023-01-29T21:07:35;69;47;
62249;PMS5003;48237;50.140;8.486;2023-01-29T21:10:02;63;47;
62249;PMS5003;48237;50.140;8.486;2023-01-29T21:12:29;61;46;
62249;PMS5003;48237;50.140;8.486;2023-01-29T21:14:56;58;44;
62249;PMS5003;48237;50.140;8.486;2023-01-29T21:17:23;64;49;
62249;PMS5003;48237;50.140;8.486;2023-01-29T21:19:51;65;54;
62249;PMS5003;48237;50.140;8.486;2023-01-29T21:22:18;71;57;
62249;PMS5003;48237;50.140;8.486;2023-01-29T21:24:45;71;53;
62249;PMS5003;48237;50.140;8.486;2023-01-29T21:27:12;67;54;
62249;PMS5003;48237;50.140;8.486;2023-01-29T21:29:38;62;47;
62249;PMS5003;48237;50.140;8.486;2023-01-29T21:32:05;66;51;
62249;PMS5003;48237;50.140;8.486;2023-01-29T21:34:33;67;49;
62249;PMS5003;48237;50.140;8.486;2023-01-29T21:37:00;79;55;
62249;PMS5003;48237;50.140;8.486;2023-01-29T21:39:38;79;54;
62249;PMS5003;48237;50.140;8.486;2023-01-29T21:42:05;70;51;
62249;PMS5003;48237;50.140;8.486;2023-01-29T21:44:32;65;47;
62249;PMS5003;48237;50.140;8.486;2023-01-29T21:47:00;59;46;
62249;PMS5003;48237;50.140;8.486;2023-01-29T21:49:27;60;48;
62249;PMS5003;48237;50.140;8.486;2023-01-29T21:51:54;56;49;
62249;PMS5003;48237;50.140;8.486;2023-01-29T21:54:21;55;44;
62249;PMS5003;48237;50.140;8.486;2023-01-29T21:56:48;60;49;
62249;PMS5003;48237;50.140;8.486;2023-01-29T21:59:15;70;46;
62249;PMS5003;48237;50.140;8.486;2023-01-29T22:01:42;64;49;
62249;PMS5003;48237;50.140;8.486;2023-01-29T22:04:09;62;52;
62249;PMS5003;48237;50.140;8.486;2023-01-29T22:06:36;66;46;
62249;PMS5003;48237;50.140;8.486;2023-01-29T22:09:04;68;49;
62249;PMS5003;48237;50.140;8.486;2023-01-29T22:11:31;69;50;
62249;PMS5003;48237;50.140;8.486;2023-01-29T22:13:58;69;46;
62249;PMS5003;48237;50.140;8.486;2023-01-29T22:16:26;79;57;
62249;PMS5003;48237;50.140;8.486;2023-01-29T22:18:53;63;51;
62249;PMS5003;48237;50.140;8.486;2023-01-29T22:21:20;75;49;
62249;PMS5003;48237;50.140;8.486;2023-01-29T22:23:47;53;41;
62249;PMS5003;48237;50.140;8.486;2023-01-29T22:26:14;69;48;
62249;PMS5003;48237;50.140;8.486;2023-01-29T22:28:42;58;47;
62249;PMS5003;48237;50.140;8.486;2023-01-29T22:31:10;73;52;
62249;PMS5003;48237;50.140;8.486;2023-01-29T22:33:37;64;49;
62249;PMS5003;48237;50.140;8.486;2023-01-29T22:36:05;51;41;
62249;PMS5003;48237;50.140;8.486;2023-01-29T22:38:33;63;46;
62249;PMS5003;48237;50.140;8.486;2023-01-29T22:41:00;65;51;
62249;PMS5003;48237;50.140;8.486;2023-01-29T22:43:27;65;46;
62249;PMS5003;48237;50.140;8.486;2023-01-29T22:45:54;54;46;
62249;PMS5003;48237;50.140;8.486;2023-01-29T22:48:22;62;51;
62249;PMS5003;48237;50.140;8.486;2023-01-29T22:50:54;51;41;
62249;PMS5003;48237;50.140;8.486;2023-01-29T22:53:21;68;51;
62249;PMS5003;48237;50.140;8.486;2023-01-29T22:55:52;63;49;
62249;PMS5003;48237;50.140;8.486;2023-01-29T22:58:19;60;47;
62249;PMS5003;48237;50.140;8.486;2023-01-29T23:00:48;52;38;
62249;PMS5003;48237;50.140;8.486;2023-01-29T23:03:15;59;42;
62249;PMS5003;48237;50.140;8.486;2023-01-29T23:05:42;61;45;
62249;PMS5003;48237;50.140;8.486;2023-01-29T23:08:10;65;48;
62249;PMS5003;48237;50.140;8.486;2023-01-29T23:10:37;78;53;
62249;PMS5003;48237;50.140;8.486;2023-01-29T23:13:04;55;49;
62249;PMS5003;48237;50.140;8.486;2023-01-29T23:15:31;69;50;
62249;PMS5003;48237;50.140;8.486;2023-01-29T23:17:58;55;42;
62249;PMS5003;48237;50.140;8.486;2023-01-29T23:20:25;67;46;
62249;PMS5003;48237;50.140;8.486;2023-01-29T23:22:53;60;43;
62249;PMS5003;48237;50.140;8.486;2023-01-29T23:25:19;63;44;
62249;PMS5003;48237;50.140;8.486;2023-01-29T23:27:47;58;46;
62249;PMS5003;48237;50.140;8.486;2023-01-29T23:30:14;67;51;
62249;PMS5003;48237;50.140;8.486;2023-01-29T23:32:41;59;46;
62249;PMS5003;48237;50.140;8.486;2023-01-29T23:35:08;55;41;
62249;PMS5003;48237;50.140;8.486;2023-01-29T23:37:35;50;37;
62249;PMS5003;48237;50.140;8.486;2023-01-29T23:40:03;67;43;
62249;PMS5003;48237;50.140;8.486;2023-01-29T23:42:30;54;41;
62249;PMS5003;48237;50.140;8.486;2023-01-29T23:44:58;48;38;
62249;PMS5003;48237;50.140;8.486;2023-01-29T23:47:25;66;48;
62249;PMS5003;48237;50.140;8.486;2023-01-29T23:49:51;52;40;
62249;PMS5003;48237;50.140;8.486;2023-01-29T23:52:19;59;39;
62249;PMS5003;48237;50.140;8.486;2023-01-29T23:54:46;53;43;
62249;PMS5003;48237;50.140;8.486;2023-01-29T23:57:13;60;39;
62249;PMS5003;48237;50.140;8.486;2023-01-29T23:59:41;58;40;
